sensor_id;sensor_type;location;lat;lon;timestamp;temperature;humidity
45849;DHT22;31567;54.600;9.842;2023-07-13T00:01:33;17.50;99.90
45849;DHT22;31567;54.600;9.842;2023-07-13T00:05:12;17.50;99.90
45849;DHT22;31567;54.600;9.842;2023-07-13T00:08:52;17.50;99.90
45849;DHT22;31567;54.600;9.842;2023-07-13T00:12:35;17.50;99.90
45849;DHT22;31567;54.600;9.842;2023-07-13T00:16:15;17.50;99.90
45849;DHT22;31567;54.600;9.842;2023-07-13T00:19:56;17.50;99.90
45849;DHT22;31567;54.600;9.842;2023-07-13T00:23:38;17.50;99.90
45849;DHT22;31567;54.600;9.842;2023-07-13T00:27:18;17.40;99.90
45849;DHT22;31567;54.600;9.842;2023-07-13T00:30:58;17.40;99.90
45849;DHT22;31567;54.600;9.842;2023-07-13T00:34:39;17.40;99.90
45849;DHT22;31567;54.600;9.842;2023-07-13T00:38:18;17.40;99.90
45849;DHT22;31567;54.600;9.842;2023-07-13T00:41:58;17.40;99.90
45849;DHT22;31567;54.600;9.842;2023-07-13T00:49:25;17.50;99.90
45849;DHT22;31567;54.600;9.842;2023-07-13T00:53:05;17.40;99.90
45849;DHT22;31567;54.600;9.842;2023-07-13T00:56:46;17.40;99.90
45849;DHT22;31567;54.600;9.842;2023-07-13T01:00:26;17.30;99.90
45849;DHT22;31567;54.600;9.842;2023-07-13T01:04:07;17.30;99.90
45849;DHT22;31567;54.600;9.842;2023-07-13T01:07:49;17.20;99.90
45849;DHT22;31567;54.600;9.842;2023-07-13T01:11:31;17.30;99.90
45849;DHT22;31567;54.600;9.842;2023-07-13T01:15:37;17.30;99.90
45849;DHT22;31567;54.600;9.842;2023-07-13T01:23:15;17.20;99.90
45849;DHT22;31567;54.600;9.842;2023-07-13T01:26:54;17.10;99.90
45849;DHT22;31567;54.600;9.842;2023-07-13T01:30:35;17.00;99.90
45849;DHT22;31567;54.600;9.842;2023-07-13T01:34:15;17.10;99.90
45849;DHT22;31567;54.600;9.842;2023-07-13T01:37:54;17.00;99.90
45849;DHT22;31567;54.600;9.842;2023-07-13T01:41:36;17.00;99.90
45849;DHT22;31567;54.600;9.842;2023-07-13T01:45:15;17.00;99.90
45849;DHT22;31567;54.600;9.842;2023-07-13T01:48:55;16.90;99.90
45849;DHT22;31567;54.600;9.842;2023-07-13T01:52:34;16.90;99.90
45849;DHT22;31567;54.600;9.842;2023-07-13T01:56:14;17.00;99.90
45849;DHT22;31567;54.600;9.842;2023-07-13T01:59:54;17.00;99.90
45849;DHT22;31567;54.600;9.842;2023-07-13T02:03:33;17.00;99.90
45849;DHT22;31567;54.600;9.842;2023-07-13T02:07:13;17.00;99.90
45849;DHT22;31567;54.600;9.842;2023-07-13T02:10:52;17.00;99.90
45849;DHT22;31567;54.600;9.842;2023-07-13T02:14:32;16.90;99.90
45849;DHT22;31567;54.600;9.842;2023-07-13T02:18:12;17.00;99.90
45849;DHT22;31567;54.600;9.842;2023-07-13T02:21:56;17.00;99.90
45849;DHT22;31567;54.600;9.842;2023-07-13T02:25:35;17.00;99.90
45849;DHT22;31567;54.600;9.842;2023-07-13T02:29:15;17.10;99.90
45849;DHT22;31567;54.600;9.842;2023-07-13T02:32:57;17.10;99.90
45849;DHT22;31567;54.600;9.842;2023-07-13T02:36:37;17.00;99.90
45849;DHT22;31567;54.600;9.842;2023-07-13T02:40:17;17.10;99.90
45849;DHT22;31567;54.600;9.842;2023-07-13T02:43:58;17.10;99.90
45849;DHT22;31567;54.600;9.842;2023-07-13T02:47:42;17.10;99.90
45849;DHT22;31567;54.600;9.842;2023-07-13T02:51:22;17.10;99.90
45849;DHT22;31567;54.600;9.842;2023-07-13T02:55:02;17.20;99.90
45849;DHT22;31567;54.600;9.842;2023-07-13T02:58:42;17.10;99.90
45849;DHT22;31567;54.600;9.842;2023-07-13T03:02:21;17.10;99.90
45849;DHT22;31567;54.600;9.842;2023-07-13T03:06:03;17.10;99.90
45849;DHT22;31567;54.600;9.842;2023-07-13T03:09:44;17.10;99.90
45849;DHT22;31567;54.600;9.842;2023-07-13T03:13:24;17.10;99.90
45849;DHT22;31567;54.600;9.842;2023-07-13T03:17:04;17.10;99.90
45849;DHT22;31567;54.600;9.842;2023-07-13T03:20:44;17.00;99.90
45849;DHT22;31567;54.600;9.842;2023-07-13T03:24:23;17.10;99.90
45849;DHT22;31567;54.600;9.842;2023-07-13T03:28:05;17.00;99.90
45849;DHT22;31567;54.600;9.842;2023-07-13T03:31:45;17.00;99.90
45849;DHT22;31567;54.600;9.842;2023-07-13T03:35:24;17.00;99.90
45849;DHT22;31567;54.600;9.842;2023-07-13T03:39:04;17.00;99.90
45849;DHT22;31567;54.600;9.842;2023-07-13T03:42:47;17.00;99.90
45849;DHT22;31567;54.600;9.842;2023-07-13T03:46:27;17.00;99.90
45849;DHT22;31567;54.600;9.842;2023-07-13T03:50:07;17.00;99.90
45849;DHT22;31567;54.600;9.842;2023-07-13T03:53:47;17.00;99.90
45849;DHT22;31567;54.600;9.842;2023-07-13T03:57:27;17.00;99.90
45849;DHT22;31567;54.600;9.842;2023-07-13T04:01:08;17.10;99.90
45849;DHT22;31567;54.600;9.842;2023-07-13T04:04:48;17.10;99.90
45849;DHT22;31567;54.600;9.842;2023-07-13T04:08:29;17.10;99.90
45849;DHT22;31567;54.600;9.842;2023-07-13T04:12:09;17.20;99.90
45849;DHT22;31567;54.600;9.842;2023-07-13T04:15:48;17.20;99.90
45849;DHT22;31567;54.600;9.842;2023-07-13T04:19:28;17.20;99.90
45849;DHT22;31567;54.600;9.842;2023-07-13T04:23:08;17.30;99.90
45849;DHT22;31567;54.600;9.842;2023-07-13T04:26:47;17.30;99.90
45849;DHT22;31567;54.600;9.842;2023-07-13T04:30:27;17.30;99.90
45849;DHT22;31567;54.600;9.842;2023-07-13T04:34:06;17.40;99.90
45849;DHT22;31567;54.600;9.842;2023-07-13T04:37:50;17.40;99.90
45849;DHT22;31567;54.600;9.842;2023-07-13T04:41:29;17.50;99.90
45849;DHT22;31567;54.600;9.842;2023-07-13T04:45:09;17.50;99.90
45849;DHT22;31567;54.600;9.842;2023-07-13T04:48:50;17.50;99.90
45849;DHT22;31567;54.600;9.842;2023-07-13T04:52:32;17.60;99.90
45849;DHT22;31567;54.600;9.842;2023-07-13T04:56:12;17.60;99.90
45849;DHT22;31567;54.600;9.842;2023-07-13T04:59:52;17.60;99.90
45849;DHT22;31567;54.600;9.842;2023-07-13T05:03:31;17.60;99.90
45849;DHT22;31567;54.600;9.842;2023-07-13T05:07:11;17.60;99.90
45849;DHT22;31567;54.600;9.842;2023-07-13T05:10:51;17.60;99.90
45849;DHT22;31567;54.600;9.842;2023-07-13T05:14:31;17.50;99.90
45849;DHT22;31567;54.600;9.842;2023-07-13T05:18:11;17.50;99.90
45849;DHT22;31567;54.600;9.842;2023-07-13T05:21:50;17.50;99.90
45849;DHT22;31567;54.600;9.842;2023-07-13T05:25:30;17.50;99.90
45849;DHT22;31567;54.600;9.842;2023-07-13T05:29:09;17.30;99.90
45849;DHT22;31567;54.600;9.842;2023-07-13T05:32:49;17.20;99.90
45849;DHT22;31567;54.600;9.842;2023-07-13T05:36:28;17.10;99.90
45849;DHT22;31567;54.600;9.842;2023-07-13T05:40:08;17.00;99.90
45849;DHT22;31567;54.600;9.842;2023-07-13T05:43:48;16.90;99.90
45849;DHT22;31567;54.600;9.842;2023-07-13T05:47:27;16.80;99.90
45849;DHT22;31567;54.600;9.842;2023-07-13T05:51:07;16.80;99.90
45849;DHT22;31567;54.600;9.842;2023-07-13T05:54:46;16.70;99.90
45849;DHT22;31567;54.600;9.842;2023-07-13T05:58:26;16.70;99.90
45849;DHT22;31567;54.600;9.842;2023-07-13T06:02:09;16.80;99.90
45849;DHT22;31567;54.600;9.842;2023-07-13T06:05:49;16.80;99.90
45849;DHT22;31567;54.600;9.842;2023-07-13T06:09:28;16.90;99.90
45849;DHT22;31567;54.600;9.842;2023-07-13T06:13:08;17.00;99.90
45849;DHT22;31567;54.600;9.842;2023-07-13T06:16:47;17.10;99.90
45849;DHT22;31567;54.600;9.842;2023-07-13T06:20:27;17.30;99.90
45849;DHT22;31567;54.600;9.842;2023-07-13T06:24:08;17.40;99.90
45849;DHT22;31567;54.600;9.842;2023-07-13T06:27:47;17.50;99.90
45849;DHT22;31567;54.600;9.842;2023-07-13T06:31:27;17.60;99.90
45849;DHT22;31567;54.600;9.842;2023-07-13T06:35:06;17.70;99.90
45849;DHT22;31567;54.600;9.842;2023-07-13T06:38:46;17.70;99.90
45849;DHT22;31567;54.600;9.842;2023-07-13T06:42:25;17.80;99.90
45849;DHT22;31567;54.600;9.842;2023-07-13T06:46:05;17.90;99.90
45849;DHT22;31567;54.600;9.842;2023-07-13T06:49:45;18.10;99.90
45849;DHT22;31567;54.600;9.842;2023-07-13T06:53:24;18.20;99.90
45849;DHT22;31567;54.600;9.842;2023-07-13T06:57:04;18.10;99.90
45849;DHT22;31567;54.600;9.842;2023-07-13T07:00:44;18.10;99.90
45849;DHT22;31567;54.600;9.842;2023-07-13T07:04:24;18.20;99.90
45849;DHT22;31567;54.600;9.842;2023-07-13T07:08:03;18.30;99.90
45849;DHT22;31567;54.600;9.842;2023-07-13T07:11:43;18.30;99.90
45849;DHT22;31567;54.600;9.842;2023-07-13T07:15:23;18.40;99.90
45849;DHT22;31567;54.600;9.842;2023-07-13T07:19:02;18.40;99.90
45849;DHT22;31567;54.600;9.842;2023-07-13T07:22:42;18.60;99.90
45849;DHT22;31567;54.600;9.842;2023-07-13T07:26:21;18.70;99.90
45849;DHT22;31567;54.600;9.842;2023-07-13T07:30:01;18.80;99.90
45849;DHT22;31567;54.600;9.842;2023-07-13T07:33:40;18.90;99.90
45849;DHT22;31567;54.600;9.842;2023-07-13T07:37:20;19.00;99.90
45849;DHT22;31567;54.600;9.842;2023-07-13T07:41:05;19.10;99.90
45849;DHT22;31567;54.600;9.842;2023-07-13T07:44:45;19.20;99.90
45849;DHT22;31567;54.600;9.842;2023-07-13T07:48:24;19.10;99.90
45849;DHT22;31567;54.600;9.842;2023-07-13T07:52:04;19.10;99.90
45849;DHT22;31567;54.600;9.842;2023-07-13T07:55:44;19.00;99.90
45849;DHT22;31567;54.600;9.842;2023-07-13T07:59:24;19.10;99.90
45849;DHT22;31567;54.600;9.842;2023-07-13T08:03:04;19.10;99.90
45849;DHT22;31567;54.600;9.842;2023-07-13T08:06:43;19.20;99.90
45849;DHT22;31567;54.600;9.842;2023-07-13T08:10:23;19.40;99.90
45849;DHT22;31567;54.600;9.842;2023-07-13T08:14:02;19.50;99.90
45849;DHT22;31567;54.600;9.842;2023-07-13T08:17:42;19.50;99.90
45849;DHT22;31567;54.600;9.842;2023-07-13T08:21:22;19.50;99.90
45849;DHT22;31567;54.600;9.842;2023-07-13T08:25:02;19.70;99.90
45849;DHT22;31567;54.600;9.842;2023-07-13T08:28:41;19.90;99.80
45849;DHT22;31567;54.600;9.842;2023-07-13T08:32:22;19.80;99.30
45849;DHT22;31567;54.600;9.842;2023-07-13T08:36:03;19.70;99.10
45849;DHT22;31567;54.600;9.842;2023-07-13T08:39:43;19.90;99.20
45849;DHT22;31567;54.600;9.842;2023-07-13T08:43:34;20.10;98.80
45849;DHT22;31567;54.600;9.842;2023-07-13T08:47:15;20.30;98.10
45849;DHT22;31567;54.600;9.842;2023-07-13T08:51:10;20.30;97.30
45849;DHT22;31567;54.600;9.842;2023-07-13T08:54:52;20.20;96.40
45849;DHT22;31567;54.600;9.842;2023-07-13T08:58:36;20.10;96.50
45849;DHT22;31567;54.600;9.842;2023-07-13T09:02:28;20.00;96.40
45849;DHT22;31567;54.600;9.842;2023-07-13T09:06:14;20.00;97.00
45849;DHT22;31567;54.600;9.842;2023-07-13T09:10:20;20.30;97.10
45849;DHT22;31567;54.600;9.842;2023-07-13T09:14:09;20.60;96.10
45849;DHT22;31567;54.600;9.842;2023-07-13T09:17:57;20.70;96.00
45849;DHT22;31567;54.600;9.842;2023-07-13T09:21:42;20.90;95.80
45849;DHT22;31567;54.600;9.842;2023-07-13T09:25:30;21.00;95.50
45849;DHT22;31567;54.600;9.842;2023-07-13T09:29:32;21.30;95.20
45849;DHT22;31567;54.600;9.842;2023-07-13T09:33:13;21.50;95.40
45849;DHT22;31567;54.600;9.842;2023-07-13T09:36:53;21.70;95.30
45849;DHT22;31567;54.600;9.842;2023-07-13T09:48:13;21.40;94.20
45849;DHT22;31567;54.600;9.842;2023-07-13T09:52:00;21.10;94.20
45849;DHT22;31567;54.600;9.842;2023-07-13T09:55:42;20.90;95.10
45849;DHT22;31567;54.600;9.842;2023-07-13T09:59:24;20.80;95.70
45849;DHT22;31567;54.600;9.842;2023-07-13T10:03:21;20.50;95.90
45849;DHT22;31567;54.600;9.842;2023-07-13T10:07:06;20.50;96.30
45849;DHT22;31567;54.600;9.842;2023-07-13T10:10:51;20.70;96.60
45849;DHT22;31567;54.600;9.842;2023-07-13T10:14:32;20.70;96.00
45849;DHT22;31567;54.600;9.842;2023-07-13T10:18:11;21.00;95.10
45849;DHT22;31567;54.600;9.842;2023-07-13T10:22:00;21.10;94.70
45849;DHT22;31567;54.600;9.842;2023-07-13T10:25:42;21.30;93.70
45849;DHT22;31567;54.600;9.842;2023-07-13T10:29:26;21.20;93.00
45849;DHT22;31567;54.600;9.842;2023-07-13T10:33:11;20.90;93.30
45849;DHT22;31567;54.600;9.842;2023-07-13T10:36:52;20.70;94.20
45849;DHT22;31567;54.600;9.842;2023-07-13T10:40:37;20.50;95.60
45849;DHT22;31567;54.600;9.842;2023-07-13T10:44:26;20.00;96.90
45849;DHT22;31567;54.600;9.842;2023-07-13T10:48:12;19.80;97.40
45849;DHT22;31567;54.600;9.842;2023-07-13T10:51:52;19.90;98.20
45849;DHT22;31567;54.600;9.842;2023-07-13T10:55:38;20.10;98.20
45849;DHT22;31567;54.600;9.842;2023-07-13T10:59:25;20.20;97.10
45849;DHT22;31567;54.600;9.842;2023-07-13T11:03:15;20.20;96.80
45849;DHT22;31567;54.600;9.842;2023-07-13T11:06:57;20.30;97.00
45849;DHT22;31567;54.600;9.842;2023-07-13T11:10:50;20.30;97.00
45849;DHT22;31567;54.600;9.842;2023-07-13T11:18:24;20.90;97.10
45849;DHT22;31567;54.600;9.842;2023-07-13T11:25:53;21.10;95.50
45849;DHT22;31567;54.600;9.842;2023-07-13T11:29:33;21.20;95.20
45849;DHT22;31567;54.600;9.842;2023-07-13T11:33:17;21.40;95.70
45849;DHT22;31567;54.600;9.842;2023-07-13T11:37:00;21.40;95.20
45849;DHT22;31567;54.600;9.842;2023-07-13T11:40:39;21.60;95.20
45849;DHT22;31567;54.600;9.842;2023-07-13T11:44:22;21.70;94.70
45849;DHT22;31567;54.600;9.842;2023-07-13T11:48:02;21.70;93.70
45849;DHT22;31567;54.600;9.842;2023-07-13T11:51:42;21.90;93.00
45849;DHT22;31567;54.600;9.842;2023-07-13T11:55:23;21.80;92.50
45849;DHT22;31567;54.600;9.842;2023-07-13T11:59:07;21.90;92.00
45849;DHT22;31567;54.600;9.842;2023-07-13T12:02:51;21.80;92.00
45849;DHT22;31567;54.600;9.842;2023-07-13T12:06:33;21.60;91.80
45849;DHT22;31567;54.600;9.842;2023-07-13T12:10:22;21.50;92.20
45849;DHT22;31567;54.600;9.842;2023-07-13T12:14:02;21.20;91.70
45849;DHT22;31567;54.600;9.842;2023-07-13T12:17:42;21.10;92.60
45849;DHT22;31567;54.600;9.842;2023-07-13T12:21:27;21.40;92.50
45849;DHT22;31567;54.600;9.842;2023-07-13T12:25:11;21.60;92.00
45849;DHT22;31567;54.600;9.842;2023-07-13T12:28:53;21.90;91.60
45849;DHT22;31567;54.600;9.842;2023-07-13T12:32:35;21.70;91.00
45849;DHT22;31567;54.600;9.842;2023-07-13T12:36:15;21.50;91.40
45849;DHT22;31567;54.600;9.842;2023-07-13T12:39:55;21.50;91.30
45849;DHT22;31567;54.600;9.842;2023-07-13T12:43:37;21.80;92.70
45849;DHT22;31567;54.600;9.842;2023-07-13T12:47:16;22.20;92.80
45849;DHT22;31567;54.600;9.842;2023-07-13T12:51:01;22.40;91.80
45849;DHT22;31567;54.600;9.842;2023-07-13T12:54:40;22.60;90.60
45849;DHT22;31567;54.600;9.842;2023-07-13T12:58:37;22.30;90.00
45849;DHT22;31567;54.600;9.842;2023-07-13T13:09:58;22.10;90.90
45849;DHT22;31567;54.600;9.842;2023-07-13T13:13:37;22.10;90.50
45849;DHT22;31567;54.600;9.842;2023-07-13T13:17:26;22.10;90.50
45849;DHT22;31567;54.600;9.842;2023-07-13T13:21:07;22.00;90.20
45849;DHT22;31567;54.600;9.842;2023-07-13T13:24:48;21.80;90.00
45849;DHT22;31567;54.600;9.842;2023-07-13T13:28:28;21.70;90.70
45849;DHT22;31567;54.600;9.842;2023-07-13T13:32:12;21.60;90.80
45849;DHT22;31567;54.600;9.842;2023-07-13T13:35:51;21.40;90.90
45849;DHT22;31567;54.600;9.842;2023-07-13T13:39:34;21.30;91.40
45849;DHT22;31567;54.600;9.842;2023-07-13T13:43:21;21.10;92.00
45849;DHT22;31567;54.600;9.842;2023-07-13T13:47:01;21.20;92.70
45849;DHT22;31567;54.600;9.842;2023-07-13T13:50:41;21.20;93.10
45849;DHT22;31567;54.600;9.842;2023-07-13T13:54:22;21.20;92.90
45849;DHT22;31567;54.600;9.842;2023-07-13T13:58:02;21.30;93.20
45849;DHT22;31567;54.600;9.842;2023-07-13T14:01:44;21.30;93.40
45849;DHT22;31567;54.600;9.842;2023-07-13T14:05:25;20.90;91.60
45849;DHT22;31567;54.600;9.842;2023-07-13T14:09:10;20.80;90.90
45849;DHT22;31567;54.600;9.842;2023-07-13T14:12:54;20.40;91.00
45849;DHT22;31567;54.600;9.842;2023-07-13T14:16:35;20.20;91.30
45849;DHT22;31567;54.600;9.842;2023-07-13T14:20:15;20.10;91.60
45849;DHT22;31567;54.600;9.842;2023-07-13T14:23:55;20.00;91.90
45849;DHT22;31567;54.600;9.842;2023-07-13T14:27:34;20.00;92.20
45849;DHT22;31567;54.600;9.842;2023-07-13T14:31:15;19.90;92.20
45849;DHT22;31567;54.600;9.842;2023-07-13T14:34:55;19.90;92.50
45849;DHT22;31567;54.600;9.842;2023-07-13T14:38:36;19.90;93.00
45849;DHT22;31567;54.600;9.842;2023-07-13T14:42:16;19.80;93.40
45849;DHT22;31567;54.600;9.842;2023-07-13T14:45:55;19.90;93.90
45849;DHT22;31567;54.600;9.842;2023-07-13T14:49:43;20.00;94.00
45849;DHT22;31567;54.600;9.842;2023-07-13T14:53:25;20.00;93.80
45849;DHT22;31567;54.600;9.842;2023-07-13T14:57:11;20.10;94.00
45849;DHT22;31567;54.600;9.842;2023-07-13T15:00:51;20.20;94.10
45849;DHT22;31567;54.600;9.842;2023-07-13T15:04:34;20.30;94.40
45849;DHT22;31567;54.600;9.842;2023-07-13T15:08:15;20.50;94.30
45849;DHT22;31567;54.600;9.842;2023-07-13T15:11:56;20.60;94.00
45849;DHT22;31567;54.600;9.842;2023-07-13T15:15:36;20.80;94.30
45849;DHT22;31567;54.600;9.842;2023-07-13T15:19:16;21.30;93.90
45849;DHT22;31567;54.600;9.842;2023-07-13T15:22:56;21.50;93.30
45849;DHT22;31567;54.600;9.842;2023-07-13T15:26:36;21.50;92.70
45849;DHT22;31567;54.600;9.842;2023-07-13T15:30:16;21.50;92.40
45849;DHT22;31567;54.600;9.842;2023-07-13T15:33:57;21.50;92.60
45849;DHT22;31567;54.600;9.842;2023-07-13T15:37:37;21.50;92.80
45849;DHT22;31567;54.600;9.842;2023-07-13T15:41:34;21.60;92.40
45849;DHT22;31567;54.600;9.842;2023-07-13T15:45:23;21.80;92.40
45849;DHT22;31567;54.600;9.842;2023-07-13T15:49:09;22.00;92.10
45849;DHT22;31567;54.600;9.842;2023-07-13T15:52:53;22.10;91.80
45849;DHT22;31567;54.600;9.842;2023-07-13T15:56:36;22.20;91.80
45849;DHT22;31567;54.600;9.842;2023-07-13T16:00:22;22.30;91.20
45849;DHT22;31567;54.600;9.842;2023-07-13T16:04:02;22.40;91.30
45849;DHT22;31567;54.600;9.842;2023-07-13T16:07:46;22.60;91.20
45849;DHT22;31567;54.600;9.842;2023-07-13T16:11:32;22.90;91.20
45849;DHT22;31567;54.600;9.842;2023-07-13T16:15:17;23.00;90.50
45849;DHT22;31567;54.600;9.842;2023-07-13T16:19:00;23.10;90.10
45849;DHT22;31567;54.600;9.842;2023-07-13T16:22:41;23.00;88.90
45849;DHT22;31567;54.600;9.842;2023-07-13T16:26:25;23.10;89.20
45849;DHT22;31567;54.600;9.842;2023-07-13T16:30:15;22.80;88.50
45849;DHT22;31567;54.600;9.842;2023-07-13T16:33:56;22.90;90.00
45849;DHT22;31567;54.600;9.842;2023-07-13T16:37:38;22.80;89.50
45849;DHT22;31567;54.600;9.842;2023-07-13T16:41:17;22.80;89.00
45849;DHT22;31567;54.600;9.842;2023-07-13T16:44:57;22.80;89.40
45849;DHT22;31567;54.600;9.842;2023-07-13T16:48:37;22.80;89.60
45849;DHT22;31567;54.600;9.842;2023-07-13T16:52:18;22.40;90.00
45849;DHT22;31567;54.600;9.842;2023-07-13T16:56:01;22.40;90.40
45849;DHT22;31567;54.600;9.842;2023-07-13T16:59:45;22.10;90.50
45849;DHT22;31567;54.600;9.842;2023-07-13T17:03:25;21.70;90.70
45849;DHT22;31567;54.600;9.842;2023-07-13T17:07:08;21.60;91.20
45849;DHT22;31567;54.600;9.842;2023-07-13T17:10:49;21.40;91.60
45849;DHT22;31567;54.600;9.842;2023-07-13T17:14:29;21.40;91.40
45849;DHT22;31567;54.600;9.842;2023-07-13T17:18:14;21.60;90.90
45849;DHT22;31567;54.600;9.842;2023-07-13T17:21:54;21.90;90.70
45849;DHT22;31567;54.600;9.842;2023-07-13T17:25:34;22.20;90.10
45849;DHT22;31567;54.600;9.842;2023-07-13T17:29:14;22.50;89.20
45849;DHT22;31567;54.600;9.842;2023-07-13T17:32:54;22.80;87.70
45849;DHT22;31567;54.600;9.842;2023-07-13T17:36:34;22.70;88.00
45849;DHT22;31567;54.600;9.842;2023-07-13T17:40:15;22.40;89.10
45849;DHT22;31567;54.600;9.842;2023-07-13T17:43:57;22.10;90.30
45849;DHT22;31567;54.600;9.842;2023-07-13T17:47:36;22.30;90.50
45849;DHT22;31567;54.600;9.842;2023-07-13T17:51:18;22.70;90.30
45849;DHT22;31567;54.600;9.842;2023-07-13T17:54:59;22.90;89.50
45849;DHT22;31567;54.600;9.842;2023-07-13T17:58:43;23.10;88.20
45849;DHT22;31567;54.600;9.842;2023-07-13T18:02:23;23.30;88.00
45849;DHT22;31567;54.600;9.842;2023-07-13T18:06:04;23.30;87.30
45849;DHT22;31567;54.600;9.842;2023-07-13T18:09:43;23.50;86.10
45849;DHT22;31567;54.600;9.842;2023-07-13T18:13:25;23.60;85.60
45849;DHT22;31567;54.600;9.842;2023-07-13T18:17:10;23.60;84.90
45849;DHT22;31567;54.600;9.842;2023-07-13T18:20:51;23.70;84.10
45849;DHT22;31567;54.600;9.842;2023-07-13T18:24:31;23.70;83.60
45849;DHT22;31567;54.600;9.842;2023-07-13T18:28:12;23.70;83.70
45849;DHT22;31567;54.600;9.842;2023-07-13T18:31:52;23.80;83.80
45849;DHT22;31567;54.600;9.842;2023-07-13T18:35:33;23.80;83.70
45849;DHT22;31567;54.600;9.842;2023-07-13T18:39:15;23.40;83.80
45849;DHT22;31567;54.600;9.842;2023-07-13T18:42:55;22.90;85.20
45849;DHT22;31567;54.600;9.842;2023-07-13T18:46:35;22.90;85.70
45849;DHT22;31567;54.600;9.842;2023-07-13T18:50:33;22.80;86.80
45849;DHT22;31567;54.600;9.842;2023-07-13T18:54:14;22.70;86.20
45849;DHT22;31567;54.600;9.842;2023-07-13T18:57:54;22.20;87.10
45849;DHT22;31567;54.600;9.842;2023-07-13T19:01:35;21.90;88.50
45849;DHT22;31567;54.600;9.842;2023-07-13T19:05:17;21.60;89.40
45849;DHT22;31567;54.600;9.842;2023-07-13T19:08:57;21.50;90.00
45849;DHT22;31567;54.600;9.842;2023-07-13T19:12:36;21.20;90.30
45849;DHT22;31567;54.600;9.842;2023-07-13T19:16:18;21.00;90.70
45849;DHT22;31567;54.600;9.842;2023-07-13T19:19:57;20.80;91.10
45849;DHT22;31567;54.600;9.842;2023-07-13T19:23:39;20.60;91.50
45849;DHT22;31567;54.600;9.842;2023-07-13T19:27:20;20.40;91.70
45849;DHT22;31567;54.600;9.842;2023-07-13T19:31:00;20.20;92.00
45849;DHT22;31567;54.600;9.842;2023-07-13T19:34:40;20.10;92.20
45849;DHT22;31567;54.600;9.842;2023-07-13T19:38:22;19.90;92.60
45849;DHT22;31567;54.600;9.842;2023-07-13T19:42:09;19.80;92.80
45849;DHT22;31567;54.600;9.842;2023-07-13T19:45:51;19.60;93.20
45849;DHT22;31567;54.600;9.842;2023-07-13T19:49:32;19.50;93.50
45849;DHT22;31567;54.600;9.842;2023-07-13T19:53:17;19.40;93.80
45849;DHT22;31567;54.600;9.842;2023-07-13T19:56:57;19.30;94.20
45849;DHT22;31567;54.600;9.842;2023-07-13T20:00:37;19.20;94.40
45849;DHT22;31567;54.600;9.842;2023-07-13T20:04:18;19.10;94.60
45849;DHT22;31567;54.600;9.842;2023-07-13T20:07:59;19.10;94.80
45849;DHT22;31567;54.600;9.842;2023-07-13T20:11:39;19.00;95.30
45849;DHT22;31567;54.600;9.842;2023-07-13T20:15:21;19.00;95.20
45849;DHT22;31567;54.600;9.842;2023-07-13T20:19:01;19.00;95.40
45849;DHT22;31567;54.600;9.842;2023-07-13T20:22:40;19.00;95.50
45849;DHT22;31567;54.600;9.842;2023-07-13T20:26:20;19.00;95.50
45849;DHT22;31567;54.600;9.842;2023-07-13T20:30:01;19.00;95.60
45849;DHT22;31567;54.600;9.842;2023-07-13T20:33:40;18.90;95.60
45849;DHT22;31567;54.600;9.842;2023-07-13T20:37:37;18.90;95.70
45849;DHT22;31567;54.600;9.842;2023-07-13T20:41:17;18.90;95.70
45849;DHT22;31567;54.600;9.842;2023-07-13T20:44:56;18.80;95.90
45849;DHT22;31567;54.600;9.842;2023-07-13T20:48:38;18.70;96.00
45849;DHT22;31567;54.600;9.842;2023-07-13T20:52:18;18.60;96.30
45849;DHT22;31567;54.600;9.842;2023-07-13T20:55:58;18.50;96.50
45849;DHT22;31567;54.600;9.842;2023-07-13T20:59:39;18.50;96.70
45849;DHT22;31567;54.600;9.842;2023-07-13T21:03:24;18.40;96.90
45849;DHT22;31567;54.600;9.842;2023-07-13T21:07:07;18.40;97.10
45849;DHT22;31567;54.600;9.842;2023-07-13T21:10:49;18.30;97.20
45849;DHT22;31567;54.600;9.842;2023-07-13T21:14:28;18.20;97.60
45849;DHT22;31567;54.600;9.842;2023-07-13T21:18:18;18.10;97.80
45849;DHT22;31567;54.600;9.842;2023-07-13T21:21:58;18.10;98.10
45849;DHT22;31567;54.600;9.842;2023-07-13T21:25:38;18.00;98.20
45849;DHT22;31567;54.600;9.842;2023-07-13T21:29:18;18.00;98.50
45849;DHT22;31567;54.600;9.842;2023-07-13T21:32:58;17.90;98.60
45849;DHT22;31567;54.600;9.842;2023-07-13T21:36:38;17.90;98.80
45849;DHT22;31567;54.600;9.842;2023-07-13T21:40:19;17.90;98.90
45849;DHT22;31567;54.600;9.842;2023-07-13T21:44:00;17.80;99.00
45849;DHT22;31567;54.600;9.842;2023-07-13T21:47:39;17.80;99.20
45849;DHT22;31567;54.600;9.842;2023-07-13T21:51:26;17.70;99.30
45849;DHT22;31567;54.600;9.842;2023-07-13T21:55:24;17.70;99.40
45849;DHT22;31567;54.600;9.842;2023-07-13T21:59:18;17.60;99.40
45849;DHT22;31567;54.600;9.842;2023-07-13T22:02:59;17.50;99.60
45849;DHT22;31567;54.600;9.842;2023-07-13T22:06:39;17.50;99.60
45849;DHT22;31567;54.600;9.842;2023-07-13T22:10:20;17.50;99.60
45849;DHT22;31567;54.600;9.842;2023-07-13T22:14:00;17.40;99.60
45849;DHT22;31567;54.600;9.842;2023-07-13T22:17:41;17.30;99.70
45849;DHT22;31567;54.600;9.842;2023-07-13T22:21:26;17.30;99.70
45849;DHT22;31567;54.600;9.842;2023-07-13T22:25:07;17.30;99.80
45849;DHT22;31567;54.600;9.842;2023-07-13T22:28:53;17.30;99.90
45849;DHT22;31567;54.600;9.842;2023-07-13T22:32:34;17.30;99.90
45849;DHT22;31567;54.600;9.842;2023-07-13T22:36:13;17.20;99.90
45849;DHT22;31567;54.600;9.842;2023-07-13T22:39:54;17.30;99.90
45849;DHT22;31567;54.600;9.842;2023-07-13T22:43:34;17.20;99.90
45849;DHT22;31567;54.600;9.842;2023-07-13T22:47:15;17.20;99.90
45849;DHT22;31567;54.600;9.842;2023-07-13T22:50:55;17.20;99.90
45849;DHT22;31567;54.600;9.842;2023-07-13T22:54:35;17.10;99.90
45849;DHT22;31567;54.600;9.842;2023-07-13T22:58:14;17.00;99.90
45849;DHT22;31567;54.600;9.842;2023-07-13T23:01:55;17.10;99.90
45849;DHT22;31567;54.600;9.842;2023-07-13T23:05:36;17.10;99.90
45849;DHT22;31567;54.600;9.842;2023-07-13T23:09:16;17.10;99.90
45849;DHT22;31567;54.600;9.842;2023-07-13T23:12:55;17.10;99.90
45849;DHT22;31567;54.600;9.842;2023-07-13T23:16:41;17.10;99.90
45849;DHT22;31567;54.600;9.842;2023-07-13T23:20:34;17.10;99.90
45849;DHT22;31567;54.600;9.842;2023-07-13T23:24:15;17.00;99.90
45849;DHT22;31567;54.600;9.842;2023-07-13T23:27:55;17.00;99.90
45849;DHT22;31567;54.600;9.842;2023-07-13T23:31:36;17.00;99.90
45849;DHT22;31567;54.600;9.842;2023-07-13T23:35:17;17.00;99.90
45849;DHT22;31567;54.600;9.842;2023-07-13T23:38:57;17.00;99.90
45849;DHT22;31567;54.600;9.842;2023-07-13T23:42:36;17.00;99.90
45849;DHT22;31567;54.600;9.842;2023-07-13T23:46:26;16.90;99.90
45849;DHT22;31567;54.600;9.842;2023-07-13T23:50:15;16.90;99.90